Lambert, Missouri
Current Conditions -  °F | °C
As of 6:53 PM on Saturday 20 Dec 2014 (Local Time) from KCGI Reporting Station
Overcast Overcast  
Wind Chill: 42°   Ceiling: 2700
Heat Index: 42°   Visibility: 10mi
Dew Point: 34°   Wind: 0mph
Humidity: 73%   Direction: NA
Pressure: 30.27"   Gusts: NA
Location:  37.0755°N, 89.5496°W
Report Text: KCGI 210053Z AUTO 00000KT 10SM OVC027 06/01 A3027 RMK AO2 SLP253 T00560011 TSNO
Loading
Personal Weather Stations






























Interactive Weather Map New forecast layout! Learn more

10-Day Weather Forecast

Advertisements
Track Severe Weather on mobile